Bookmark and Share
Track history (hours):
 

Victory

More information available from US FCC via Universal Licensing System and Coast Guard Vessel Documentation Center.

Last reported at 2014-Apr-20 04:22 UTC. Time now 2014-Apr-20 05:51 UTC.
Position N 45°11' W 086°27'.

Length 38 m; draft 6 m.

MMSI: 367480260.

NotesDate/timePositionNaut miles runAvg speedWind from/ knotsBaromVisibWave heightAir tempDewpointWater temp
2014-Apr-20 04:22N 45°11' W 086°27'8 9.6
2014-Apr-20 03:32N 45°19' W 086°26'12 9.8
2014-Apr-20 02:16N 45°31' W 086°26'710.0
2014-Apr-20 01:34N 45°36' W 086°18'1110.6
2014-Apr-20 00:34N 45°41' W 086°05'1010.0
2014-Apr-19 23:34N 45°45' W 085°52'1010.5
2014-Apr-19 22:34N 45°52' W 085°40'7 6.8
2014-Apr-19 21:34N 45°54' W 085°31'6 6.1
2014-Apr-19 20:34N 45°54' W 085°23'9 9.1
2014-Apr-19 19:33N 45°52' W 085°10'9 9.1
2014-Apr-19 18:33N 45°52' W 084°57'9 9.0
2014-Apr-19 17:34N 45°49' W 084°44'6 6.2
2014-Apr-19 16:34N 45°51' W 084°36'4 3.9
2014-Apr-19 15:34N 45°51' W 084°30'1 1.2
2014-Apr-19 14:32N 45°51' W 084°29'3 2.6
2014-Apr-19 13:33N 45°51' W 084°25'3 4.9
2014-Apr-19 13:00N 45°54' W 084°24'919.9 080 / 101032.810.8 0.5 3.3 1.1
2014-Apr-19 12:33N 45°47' W 084°17'1110.6
2014-Apr-19 11:33N 45°40' W 084°05'13 8.1
2014-Apr-19 10:00N 45°36' W 083°48'7 0.4 350 / 71031.8 5.4 0.5-0.5
2014-Apr-18 15:00N 45°42' W 083°42'1514.6 290 / 101025.727.0 0.5 1.1 1.1
2014-Apr-18 14:00N 45°54' W 083°54'11 0.8 290 / 101025.327.0 0.5 1.1 1.1
2014-Apr-18 00:12N 46°04' W 084°01'0 0.0
2014-Apr-17 22:30N 46°04' W 084°01'  
2014-Apr-14 11:33N 45°57' W 083°54'3 0.4
2014-Apr-14 05:00N 45°54' W 083°54'17 4.3 360 / 91003.7 2.2 0.5 3.3
2014-Apr-14 01:00N 45°42' W 083°36'1312.7 340 / 101007.1 0.0 0.5 1.1 1.6
2014-Apr-14 00:00N 45°30' W 083°30'29 9.8 340 / 161007.7 0.0 0.5 1.1 1.6
2014-Apr-13 21:00N 45°06' W 083°06'20 6.6 340 / 21007.7 0.3 0.5 4.4
2014-Apr-13 18:00N 44°48' W 082°54'2525.5 1006.4 5.4 0.5 7.2
2014-Apr-13 17:00N 44°24' W 082°42'4310.7 020 / 51006.4 2.2 0.5 4.4
2014-Apr-13 13:00N 43°42' W 082°30'1212.0 120 / 161007.710.8 1.0 3.3 2.7
2014-Apr-13 12:00N 43°30' W 082°30'108 6.0 140 / 81008.410.8 1.0 5.5 2.7
2014-Apr-12 18:00N 41°42' W 082°30'   110 / 151016.9 5.4 0.517.2

Dump ship's entire track history

sailing weather and tide predictions

Victory — WDF7020 — position and weather